sensor_id;sensor_type;location;lat;lon;timestamp;temperature;humidity
36186;DHT22;22228;53.222;7.446;2023-12-22T00:01:47;4.80;99.90
36186;DHT22;22228;53.222;7.446;2023-12-22T00:05:08;4.60;99.90
36186;DHT22;22228;53.222;7.446;2023-12-22T00:08:30;4.60;99.90
36186;DHT22;22228;53.222;7.446;2023-12-22T00:11:50;4.70;99.90
36186;DHT22;22228;53.222;7.446;2023-12-22T00:15:11;4.70;99.90
36186;DHT22;22228;53.222;7.446;2023-12-22T00:18:32;4.80;99.90
36186;DHT22;22228;53.222;7.446;2023-12-22T00:21:52;5.00;99.90
36186;DHT22;22228;53.222;7.446;2023-12-22T00:25:14;5.20;99.90
36186;DHT22;22228;53.222;7.446;2023-12-22T00:28:34;5.40;99.90
36186;DHT22;22228;53.222;7.446;2023-12-22T00:31:55;5.60;99.90
36186;DHT22;22228;53.222;7.446;2023-12-22T00:35:15;5.30;99.90
36186;DHT22;22228;53.222;7.446;2023-12-22T00:38:36;4.20;99.90
36186;DHT22;22228;53.222;7.446;2023-12-22T00:41:58;3.80;99.90
36186;DHT22;22228;53.222;7.446;2023-12-22T00:45:18;3.80;99.90
36186;DHT22;22228;53.222;7.446;2023-12-22T00:48:38;3.70;99.90
36186;DHT22;22228;53.222;7.446;2023-12-22T00:51:59;3.70;99.90
36186;DHT22;22228;53.222;7.446;2023-12-22T00:55:19;3.80;99.90
36186;DHT22;22228;53.222;7.446;2023-12-22T00:58:41;3.90;99.90
36186;DHT22;22228;53.222;7.446;2023-12-22T01:02:02;4.10;99.90
36186;DHT22;22228;53.222;7.446;2023-12-22T01:05:22;4.20;99.90
36186;DHT22;22228;53.222;7.446;2023-12-22T01:08:43;4.60;99.90
36186;DHT22;22228;53.222;7.446;2023-12-22T01:12:04;4.50;99.90
36186;DHT22;22228;53.222;7.446;2023-12-22T04:02:34;5.30;1.00
36186;DHT22;22228;53.222;7.446;2023-12-22T04:05:55;5.30;1.00
36186;DHT22;22228;53.222;7.446;2023-12-22T04:09:15;5.20;1.00
36186;DHT22;22228;53.222;7.446;2023-12-22T04:12:36;5.30;33.80
36186;DHT22;22228;53.222;7.446;2023-12-22T04:15:54;5.30;59.20
36186;DHT22;22228;53.222;7.446;2023-12-22T04:19:16;5.40;35.40
36186;DHT22;22228;53.222;7.446;2023-12-22T04:22:36;5.50;1.00
36186;DHT22;22228;53.222;7.446;2023-12-22T04:25:57;5.30;1.00
36186;DHT22;22228;53.222;7.446;2023-12-22T04:29:17;5.30;1.00
36186;DHT22;22228;53.222;7.446;2023-12-22T04:32:38;5.20;1.00
36186;DHT22;22228;53.222;7.446;2023-12-22T04:36:00;5.20;1.00
36186;DHT22;22228;53.222;7.446;2023-12-22T04:39:20;5.20;1.00
36186;DHT22;22228;53.222;7.446;2023-12-22T04:42:41;5.20;23.90
36186;DHT22;22228;53.222;7.446;2023-12-22T04:46:02;5.40;1.00
36186;DHT22;22228;53.222;7.446;2023-12-22T04:49:22;5.60;1.00
36186;DHT22;22228;53.222;7.446;2023-12-22T04:52:44;5.70;43.40
36186;DHT22;22228;53.222;7.446;2023-12-22T04:56:06;5.70;92.50
36186;DHT22;22228;53.222;7.446;2023-12-22T04:59:26;5.70;99.90
36186;DHT22;22228;53.222;7.446;2023-12-22T05:02:47;5.80;29.90
36186;DHT22;22228;53.222;7.446;2023-12-22T05:06:07;5.90;1.00
36186;DHT22;22228;53.222;7.446;2023-12-22T05:09:29;6.00;99.90
36186;DHT22;22228;53.222;7.446;2023-12-22T05:12:49;6.00;99.90
36186;DHT22;22228;53.222;7.446;2023-12-22T05:16:10;6.10;99.90
36186;DHT22;22228;53.222;7.446;2023-12-22T05:19:31;6.20;99.90
36186;DHT22;22228;53.222;7.446;2023-12-22T05:22:51;6.20;99.90
36186;DHT22;22228;53.222;7.446;2023-12-22T05:26:17;6.30;1.00
36186;DHT22;22228;53.222;7.446;2023-12-22T05:29:38;6.20;1.00
36186;DHT22;22228;53.222;7.446;2023-12-22T05:32:58;6.20;1.00
36186;DHT22;22228;53.222;7.446;2023-12-22T05:36:19;6.20;1.00
36186;DHT22;22228;53.222;7.446;2023-12-22T05:39:39;6.30;99.90
36186;DHT22;22228;53.222;7.446;2023-12-22T05:43:01;6.30;1.00
36186;DHT22;22228;53.222;7.446;2023-12-22T05:46:22;6.30;1.00
36186;DHT22;22228;53.222;7.446;2023-12-22T05:49:43;6.40;43.70
36186;DHT22;22228;53.222;7.446;2023-12-22T05:53:04;6.50;99.90
36186;DHT22;22228;53.222;7.446;2023-12-22T05:56:24;6.40;99.90
36186;DHT22;22228;53.222;7.446;2023-12-22T05:59:46;6.40;1.00
36186;DHT22;22228;53.222;7.446;2023-12-22T06:03:07;6.40;1.00
36186;DHT22;22228;53.222;7.446;2023-12-22T06:06:27;6.40;1.00
36186;DHT22;22228;53.222;7.446;2023-12-22T06:09:49;6.50;1.00
36186;DHT22;22228;53.222;7.446;2023-12-22T06:13:09;6.50;1.00
36186;DHT22;22228;53.222;7.446;2023-12-22T06:16:31;6.60;99.90
36186;DHT22;22228;53.222;7.446;2023-12-22T06:19:52;6.60;14.20
36186;DHT22;22228;53.222;7.446;2023-12-22T06:23:12;6.60;1.00
36186;DHT22;22228;53.222;7.446;2023-12-22T06:26:32;6.70;12.50
36186;DHT22;22228;53.222;7.446;2023-12-22T06:29:53;6.70;99.90
36186;DHT22;22228;53.222;7.446;2023-12-22T06:33:16;6.80;1.00
36186;DHT22;22228;53.222;7.446;2023-12-22T06:36:36;6.70;99.90
36186;DHT22;22228;53.222;7.446;2023-12-22T06:39:57;6.70;99.90
36186;DHT22;22228;53.222;7.446;2023-12-22T06:43:17;6.70;99.90
36186;DHT22;22228;53.222;7.446;2023-12-22T06:46:38;6.70;99.90
36186;DHT22;22228;53.222;7.446;2023-12-22T06:50:00;6.70;1.00
36186;DHT22;22228;53.222;7.446;2023-12-22T06:53:20;6.70;57.70
36186;DHT22;22228;53.222;7.446;2023-12-22T06:56:41;6.70;99.90
36186;DHT22;22228;53.222;7.446;2023-12-22T07:00:02;6.70;99.90
36186;DHT22;22228;53.222;7.446;2023-12-22T07:03:22;6.70;99.90
36186;DHT22;22228;53.222;7.446;2023-12-22T07:06:44;6.60;99.90
36186;DHT22;22228;53.222;7.446;2023-12-22T07:10:07;6.60;1.00
36186;DHT22;22228;53.222;7.446;2023-12-22T07:13:27;6.60;99.90
36186;DHT22;22228;53.222;7.446;2023-12-22T07:16:48;6.70;99.90
36186;DHT22;22228;53.222;7.446;2023-12-22T07:20:09;6.70;1.00
36186;DHT22;22228;53.222;7.446;2023-12-22T07:23:31;6.60;1.00
36186;DHT22;22228;53.222;7.446;2023-12-22T07:26:52;6.60;99.90
36186;DHT22;22228;53.222;7.446;2023-12-22T07:30:13;6.60;99.90
36186;DHT22;22228;53.222;7.446;2023-12-22T07:33:35;6.60;99.90
36186;DHT22;22228;53.222;7.446;2023-12-22T07:36:55;6.70;99.90
36186;DHT22;22228;53.222;7.446;2023-12-22T07:40:17;6.60;99.90
36186;DHT22;22228;53.222;7.446;2023-12-22T07:43:38;6.60;99.90
36186;DHT22;22228;53.222;7.446;2023-12-22T07:47:01;6.50;99.90
36186;DHT22;22228;53.222;7.446;2023-12-22T07:50:21;6.40;99.90
36186;DHT22;22228;53.222;7.446;2023-12-22T07:53:42;6.20;1.00
36186;DHT22;22228;53.222;7.446;2023-12-22T07:57:05;6.10;17.10
36186;DHT22;22228;53.222;7.446;2023-12-22T08:00:25;6.10;1.00
36186;DHT22;22228;53.222;7.446;2023-12-22T08:03:46;6.00;53.50
36186;DHT22;22228;53.222;7.446;2023-12-22T08:07:06;5.90;99.90
36186;DHT22;22228;53.222;7.446;2023-12-22T08:10:27;5.80;1.00
36186;DHT22;22228;53.222;7.446;2023-12-22T08:13:49;5.80;1.00
36186;DHT22;22228;53.222;7.446;2023-12-22T08:17:09;5.80;1.00
36186;DHT22;22228;53.222;7.446;2023-12-22T08:20:30;5.90;1.00
36186;DHT22;22228;53.222;7.446;2023-12-22T08:23:50;5.90;1.00
36186;DHT22;22228;53.222;7.446;2023-12-22T08:27:11;6.00;1.00
36186;DHT22;22228;53.222;7.446;2023-12-22T08:30:32;6.00;1.00
36186;DHT22;22228;53.222;7.446;2023-12-22T08:33:53;6.10;1.00
36186;DHT22;22228;53.222;7.446;2023-12-22T08:37:14;6.10;1.00
36186;DHT22;22228;53.222;7.446;2023-12-22T08:40:35;6.10;1.00
36186;DHT22;22228;53.222;7.446;2023-12-22T08:43:56;6.10;1.00
36186;DHT22;22228;53.222;7.446;2023-12-22T08:47:17;6.20;1.00
36186;DHT22;22228;53.222;7.446;2023-12-22T08:50:38;6.20;1.00
36186;DHT22;22228;53.222;7.446;2023-12-22T08:53:58;6.30;1.00
36186;DHT22;22228;53.222;7.446;2023-12-22T08:57:19;6.30;1.00
36186;DHT22;22228;53.222;7.446;2023-12-22T09:00:39;6.40;1.00
36186;DHT22;22228;53.222;7.446;2023-12-22T09:04:01;6.40;1.00
36186;DHT22;22228;53.222;7.446;2023-12-22T09:07:22;6.40;15.10
36186;DHT22;22228;53.222;7.446;2023-12-22T09:10:43;6.40;39.80
36186;DHT22;22228;53.222;7.446;2023-12-22T09:14:05;6.30;46.60
36186;DHT22;22228;53.222;7.446;2023-12-22T09:17:28;6.20;99.90
36186;DHT22;22228;53.222;7.446;2023-12-22T09:20:50;6.20;99.90
36186;DHT22;22228;53.222;7.446;2023-12-22T09:24:10;6.20;99.90
36186;DHT22;22228;53.222;7.446;2023-12-22T09:27:31;6.20;99.90
36186;DHT22;22228;53.222;7.446;2023-12-22T09:30:52;6.20;99.90
36186;DHT22;22228;53.222;7.446;2023-12-22T09:34:12;6.10;99.90
36186;DHT22;22228;53.222;7.446;2023-12-22T09:37:35;6.10;99.90
36186;DHT22;22228;53.222;7.446;2023-12-22T09:40:55;6.10;99.90
36186;DHT22;22228;53.222;7.446;2023-12-22T09:44:19;6.10;99.90
36186;DHT22;22228;53.222;7.446;2023-12-22T09:47:41;6.10;99.90
36186;DHT22;22228;53.222;7.446;2023-12-22T09:51:03;6.10;99.90
36186;DHT22;22228;53.222;7.446;2023-12-22T09:54:25;6.10;99.90
36186;DHT22;22228;53.222;7.446;2023-12-22T09:57:46;6.20;99.90
36186;DHT22;22228;53.222;7.446;2023-12-22T10:01:07;6.20;99.90
36186;DHT22;22228;53.222;7.446;2023-12-22T10:04:29;6.30;99.90
36186;DHT22;22228;53.222;7.446;2023-12-22T10:07:50;6.30;99.90
36186;DHT22;22228;53.222;7.446;2023-12-22T10:11:12;6.30;99.90
36186;DHT22;22228;53.222;7.446;2023-12-22T10:14:34;6.40;99.90
36186;DHT22;22228;53.222;7.446;2023-12-22T10:17:56;6.40;99.90
36186;DHT22;22228;53.222;7.446;2023-12-22T10:21:16;6.40;99.90
36186;DHT22;22228;53.222;7.446;2023-12-22T10:24:37;6.50;99.90
36186;DHT22;22228;53.222;7.446;2023-12-22T10:27:59;6.50;99.90
36186;DHT22;22228;53.222;7.446;2023-12-22T10:31:19;6.50;99.90
36186;DHT22;22228;53.222;7.446;2023-12-22T10:34:39;6.40;99.90
36186;DHT22;22228;53.222;7.446;2023-12-22T10:38:00;6.30;99.90
36186;DHT22;22228;53.222;7.446;2023-12-22T10:41:21;6.20;99.90
36186;DHT22;22228;53.222;7.446;2023-12-22T10:44:48;6.20;99.90
36186;DHT22;22228;53.222;7.446;2023-12-22T10:48:08;6.20;99.90
36186;DHT22;22228;53.222;7.446;2023-12-22T10:51:30;6.30;99.90
36186;DHT22;22228;53.222;7.446;2023-12-22T10:54:51;6.30;99.90
36186;DHT22;22228;53.222;7.446;2023-12-22T10:58:12;6.30;99.90
36186;DHT22;22228;53.222;7.446;2023-12-22T11:01:35;6.40;99.90
36186;DHT22;22228;53.222;7.446;2023-12-22T11:05:00;6.40;99.90
36186;DHT22;22228;53.222;7.446;2023-12-22T11:08:21;6.50;99.90
36186;DHT22;22228;53.222;7.446;2023-12-22T11:11:44;6.60;99.90
36186;DHT22;22228;53.222;7.446;2023-12-22T11:15:06;6.70;99.90
36186;DHT22;22228;53.222;7.446;2023-12-22T11:18:28;6.70;99.90
36186;DHT22;22228;53.222;7.446;2023-12-22T11:21:50;6.80;99.90
36186;DHT22;22228;53.222;7.446;2023-12-22T11:25:12;6.90;99.90
36186;DHT22;22228;53.222;7.446;2023-12-22T11:28:34;6.90;99.90
36186;DHT22;22228;53.222;7.446;2023-12-22T11:31:57;7.00;99.90
36186;DHT22;22228;53.222;7.446;2023-12-22T11:35:19;7.00;99.90
36186;DHT22;22228;53.222;7.446;2023-12-22T11:38:42;7.10;99.90
36186;DHT22;22228;53.222;7.446;2023-12-22T11:42:04;7.10;99.90
36186;DHT22;22228;53.222;7.446;2023-12-22T11:45:25;7.20;99.90
36186;DHT22;22228;53.222;7.446;2023-12-22T11:48:48;7.20;99.90
36186;DHT22;22228;53.222;7.446;2023-12-22T11:52:12;7.20;99.90
36186;DHT22;22228;53.222;7.446;2023-12-22T11:55:56;7.10;99.90
36186;DHT22;22228;53.222;7.446;2023-12-22T11:59:17;7.20;99.90
36186;DHT22;22228;53.222;7.446;2023-12-22T12:02:39;7.20;99.90
36186;DHT22;22228;53.222;7.446;2023-12-22T12:06:30;7.20;99.90
36186;DHT22;22228;53.222;7.446;2023-12-22T12:09:52;7.20;99.90
36186;DHT22;22228;53.222;7.446;2023-12-22T12:13:15;7.20;99.90
36186;DHT22;22228;53.222;7.446;2023-12-22T12:16:38;7.20;99.90
36186;DHT22;22228;53.222;7.446;2023-12-22T12:19:59;7.30;99.90
36186;DHT22;22228;53.222;7.446;2023-12-22T12:23:19;7.30;99.90
36186;DHT22;22228;53.222;7.446;2023-12-22T12:26:42;7.30;99.90
36186;DHT22;22228;53.222;7.446;2023-12-22T12:30:12;7.40;99.90
36186;DHT22;22228;53.222;7.446;2023-12-22T12:33:35;7.40;99.90
36186;DHT22;22228;53.222;7.446;2023-12-22T12:36:57;7.40;99.90
36186;DHT22;22228;53.222;7.446;2023-12-22T12:40:20;7.30;99.90
36186;DHT22;22228;53.222;7.446;2023-12-22T12:43:45;7.30;99.90
36186;DHT22;22228;53.222;7.446;2023-12-22T12:47:13;7.10;99.90
36186;DHT22;22228;53.222;7.446;2023-12-22T12:50:34;6.60;99.90
36186;DHT22;22228;53.222;7.446;2023-12-22T12:53:56;6.20;99.90
36186;DHT22;22228;53.222;7.446;2023-12-22T12:57:17;6.00;99.90
36186;DHT22;22228;53.222;7.446;2023-12-22T13:00:39;5.90;99.90
36186;DHT22;22228;53.222;7.446;2023-12-22T13:03:59;5.90;99.90
36186;DHT22;22228;53.222;7.446;2023-12-22T13:07:24;6.00;99.90
36186;DHT22;22228;53.222;7.446;2023-12-22T13:10:45;6.00;99.90
36186;DHT22;22228;53.222;7.446;2023-12-22T13:14:07;6.10;99.90
36186;DHT22;22228;53.222;7.446;2023-12-22T13:17:29;6.30;99.90
36186;DHT22;22228;53.222;7.446;2023-12-22T13:20:50;6.30;99.90
36186;DHT22;22228;53.222;7.446;2023-12-22T13:24:12;6.40;99.90
36186;DHT22;22228;53.222;7.446;2023-12-22T13:27:44;6.50;99.90
36186;DHT22;22228;53.222;7.446;2023-12-22T13:31:10;6.50;99.90
36186;DHT22;22228;53.222;7.446;2023-12-22T13:34:32;6.50;99.90
36186;DHT22;22228;53.222;7.446;2023-12-22T13:37:53;6.50;99.90
36186;DHT22;22228;53.222;7.446;2023-12-22T13:41:14;6.50;99.90
36186;DHT22;22228;53.222;7.446;2023-12-22T13:44:42;6.40;99.90
36186;DHT22;22228;53.222;7.446;2023-12-22T13:48:03;6.30;99.90
36186;DHT22;22228;53.222;7.446;2023-12-22T13:51:25;6.20;99.90
36186;DHT22;22228;53.222;7.446;2023-12-22T13:54:46;6.20;99.90
36186;DHT22;22228;53.222;7.446;2023-12-22T13:58:07;6.10;99.90
36186;DHT22;22228;53.222;7.446;2023-12-22T14:01:28;5.70;99.90
36186;DHT22;22228;53.222;7.446;2023-12-22T14:04:49;5.40;99.90
36186;DHT22;22228;53.222;7.446;2023-12-22T14:08:11;5.30;99.90
36186;DHT22;22228;53.222;7.446;2023-12-22T14:11:32;5.30;99.90
36186;DHT22;22228;53.222;7.446;2023-12-22T14:14:52;5.30;99.90
36186;DHT22;22228;53.222;7.446;2023-12-22T14:18:12;5.30;99.90
36186;DHT22;22228;53.222;7.446;2023-12-22T14:21:33;5.30;99.90
36186;DHT22;22228;53.222;7.446;2023-12-22T14:24:55;5.20;99.90
36186;DHT22;22228;53.222;7.446;2023-12-22T14:28:15;5.20;99.90
36186;DHT22;22228;53.222;7.446;2023-12-22T14:31:36;5.10;99.90
36186;DHT22;22228;53.222;7.446;2023-12-22T14:34:56;5.00;99.90
36186;DHT22;22228;53.222;7.446;2023-12-22T14:38:17;5.00;99.90
36186;DHT22;22228;53.222;7.446;2023-12-22T14:41:39;4.90;99.90
36186;DHT22;22228;53.222;7.446;2023-12-22T14:44:59;5.00;99.90
36186;DHT22;22228;53.222;7.446;2023-12-22T14:48:21;5.00;99.90
36186;DHT22;22228;53.222;7.446;2023-12-22T14:51:41;5.00;99.90
36186;DHT22;22228;53.222;7.446;2023-12-22T14:55:02;4.90;99.90
36186;DHT22;22228;53.222;7.446;2023-12-22T14:58:24;4.90;99.90
36186;DHT22;22228;53.222;7.446;2023-12-22T15:01:45;4.90;99.90
36186;DHT22;22228;53.222;7.446;2023-12-22T15:05:05;4.90;99.90
36186;DHT22;22228;53.222;7.446;2023-12-22T15:08:26;5.00;99.90
36186;DHT22;22228;53.222;7.446;2023-12-22T15:11:46;5.00;99.90
36186;DHT22;22228;53.222;7.446;2023-12-22T15:15:08;5.00;99.90
36186;DHT22;22228;53.222;7.446;2023-12-22T15:18:29;5.10;99.90
36186;DHT22;22228;53.222;7.446;2023-12-22T15:21:51;5.20;99.90
36186;DHT22;22228;53.222;7.446;2023-12-22T15:25:11;5.30;99.90
36186;DHT22;22228;53.222;7.446;2023-12-22T15:28:32;5.30;99.90
36186;DHT22;22228;53.222;7.446;2023-12-22T15:31:54;5.40;99.90
36186;DHT22;22228;53.222;7.446;2023-12-22T15:35:18;5.40;99.90
36186;DHT22;22228;53.222;7.446;2023-12-22T15:38:39;5.50;99.90
36186;DHT22;22228;53.222;7.446;2023-12-22T15:41:59;5.50;99.90
36186;DHT22;22228;53.222;7.446;2023-12-22T15:45:20;5.50;99.90
36186;DHT22;22228;53.222;7.446;2023-12-22T15:48:42;5.50;99.90
36186;DHT22;22228;53.222;7.446;2023-12-22T15:52:03;5.50;99.90
36186;DHT22;22228;53.222;7.446;2023-12-22T15:55:23;5.60;99.90
36186;DHT22;22228;53.222;7.446;2023-12-22T15:58:43;5.60;99.90
36186;DHT22;22228;53.222;7.446;2023-12-22T16:02:04;5.60;99.90
36186;DHT22;22228;53.222;7.446;2023-12-22T16:05:27;5.60;99.90
36186;DHT22;22228;53.222;7.446;2023-12-22T16:08:48;5.60;99.90
36186;DHT22;22228;53.222;7.446;2023-12-22T16:12:08;5.50;99.90
36186;DHT22;22228;53.222;7.446;2023-12-22T16:15:29;5.50;99.90
36186;DHT22;22228;53.222;7.446;2023-12-22T16:18:49;5.50;99.90
36186;DHT22;22228;53.222;7.446;2023-12-22T16:22:11;5.60;99.90
36186;DHT22;22228;53.222;7.446;2023-12-22T16:25:32;5.60;99.90
36186;DHT22;22228;53.222;7.446;2023-12-22T16:28:52;5.80;99.90
36186;DHT22;22228;53.222;7.446;2023-12-22T16:32:13;5.80;99.90
36186;DHT22;22228;53.222;7.446;2023-12-22T16:35:35;5.80;99.90
36186;DHT22;22228;53.222;7.446;2023-12-22T16:38:57;5.80;99.90
36186;DHT22;22228;53.222;7.446;2023-12-22T16:42:18;5.80;99.90
36186;DHT22;22228;53.222;7.446;2023-12-22T16:45:39;5.80;99.90
36186;DHT22;22228;53.222;7.446;2023-12-22T16:49:00;5.70;99.90
36186;DHT22;22228;53.222;7.446;2023-12-22T16:52:22;5.60;99.90
36186;DHT22;22228;53.222;7.446;2023-12-22T16:55:43;5.70;99.90
36186;DHT22;22228;53.222;7.446;2023-12-22T16:59:04;5.70;99.90
36186;DHT22;22228;53.222;7.446;2023-12-22T17:02:24;5.80;99.90
36186;DHT22;22228;53.222;7.446;2023-12-22T17:05:45;5.80;99.90
36186;DHT22;22228;53.222;7.446;2023-12-22T17:09:05;5.80;99.90
36186;DHT22;22228;53.222;7.446;2023-12-22T17:12:27;5.70;99.90
36186;DHT22;22228;53.222;7.446;2023-12-22T17:15:47;5.80;99.90
36186;DHT22;22228;53.222;7.446;2023-12-22T17:19:08;6.00;99.90
36186;DHT22;22228;53.222;7.446;2023-12-22T17:22:28;6.10;99.90
36186;DHT22;22228;53.222;7.446;2023-12-22T17:25:49;6.00;99.90
36186;DHT22;22228;53.222;7.446;2023-12-22T17:29:11;5.90;99.90
36186;DHT22;22228;53.222;7.446;2023-12-22T17:32:31;5.70;99.90
36186;DHT22;22228;53.222;7.446;2023-12-22T17:35:52;5.50;99.90
36186;DHT22;22228;53.222;7.446;2023-12-22T17:39:12;5.60;99.90
36186;DHT22;22228;53.222;7.446;2023-12-22T17:42:33;5.60;99.90
36186;DHT22;22228;53.222;7.446;2023-12-22T17:45:55;5.50;99.90
36186;DHT22;22228;53.222;7.446;2023-12-22T17:49:16;5.30;99.90
36186;DHT22;22228;53.222;7.446;2023-12-22T17:52:36;5.00;99.90
36186;DHT22;22228;53.222;7.446;2023-12-22T17:55:57;4.80;99.90
36186;DHT22;22228;53.222;7.446;2023-12-22T17:59:17;4.60;99.90
36186;DHT22;22228;53.222;7.446;2023-12-22T18:02:39;4.50;99.90
36186;DHT22;22228;53.222;7.446;2023-12-22T18:06:00;4.40;99.90
36186;DHT22;22228;53.222;7.446;2023-12-22T18:09:20;4.30;99.90
36186;DHT22;22228;53.222;7.446;2023-12-22T18:12:41;4.20;99.90
36186;DHT22;22228;53.222;7.446;2023-12-22T18:16:03;4.10;99.90
36186;DHT22;22228;53.222;7.446;2023-12-22T18:19:24;4.10;99.90
36186;DHT22;22228;53.222;7.446;2023-12-22T18:22:45;4.20;99.90
36186;DHT22;22228;53.222;7.446;2023-12-22T18:26:06;4.20;99.90
36186;DHT22;22228;53.222;7.446;2023-12-22T18:29:26;4.20;99.90
36186;DHT22;22228;53.222;7.446;2023-12-22T18:32:47;4.30;99.90
36186;DHT22;22228;53.222;7.446;2023-12-22T18:36:09;4.30;99.90
36186;DHT22;22228;53.222;7.446;2023-12-22T18:39:29;4.40;99.90
36186;DHT22;22228;53.222;7.446;2023-12-22T18:42:50;4.50;99.90
36186;DHT22;22228;53.222;7.446;2023-12-22T18:46:10;4.60;99.90
36186;DHT22;22228;53.222;7.446;2023-12-22T18:49:31;4.70;99.90
36186;DHT22;22228;53.222;7.446;2023-12-22T18:52:52;4.80;99.90
36186;DHT22;22228;53.222;7.446;2023-12-22T18:56:19;4.80;99.90
36186;DHT22;22228;53.222;7.446;2023-12-22T18:59:39;5.00;99.90
36186;DHT22;22228;53.222;7.446;2023-12-22T19:03:01;5.00;99.90
36186;DHT22;22228;53.222;7.446;2023-12-22T19:06:22;5.10;99.90
36186;DHT22;22228;53.222;7.446;2023-12-22T19:09:44;5.10;99.90
36186;DHT22;22228;53.222;7.446;2023-12-22T19:13:05;5.20;99.90
36186;DHT22;22228;53.222;7.446;2023-12-22T19:16:25;5.30;99.90
36186;DHT22;22228;53.222;7.446;2023-12-22T19:19:46;5.40;99.90
36186;DHT22;22228;53.222;7.446;2023-12-22T19:23:08;5.40;99.90
36186;DHT22;22228;53.222;7.446;2023-12-22T19:26:30;5.40;99.90
36186;DHT22;22228;53.222;7.446;2023-12-22T19:29:51;5.50;99.90
36186;DHT22;22228;53.222;7.446;2023-12-22T19:33:12;5.60;99.90
36186;DHT22;22228;53.222;7.446;2023-12-22T19:36:32;5.60;99.90
36186;DHT22;22228;53.222;7.446;2023-12-22T19:39:53;5.50;99.90
36186;DHT22;22228;53.222;7.446;2023-12-22T19:43:15;5.40;99.90
36186;DHT22;22228;53.222;7.446;2023-12-22T19:46:35;5.30;99.90
36186;DHT22;22228;53.222;7.446;2023-12-22T19:49:55;4.70;99.90
36186;DHT22;22228;53.222;7.446;2023-12-22T19:53:16;4.30;99.90
36186;DHT22;22228;53.222;7.446;2023-12-22T19:56:36;4.20;99.90
36186;DHT22;22228;53.222;7.446;2023-12-22T19:59:58;4.20;99.90
36186;DHT22;22228;53.222;7.446;2023-12-22T20:03:19;4.20;99.90
36186;DHT22;22228;53.222;7.446;2023-12-22T20:06:41;4.30;99.90
36186;DHT22;22228;53.222;7.446;2023-12-22T20:10:03;4.20;99.90
36186;DHT22;22228;53.222;7.446;2023-12-22T20:13:24;4.10;99.90
36186;DHT22;22228;53.222;7.446;2023-12-22T20:16:45;4.00;99.90
36186;DHT22;22228;53.222;7.446;2023-12-22T20:20:06;4.00;99.90
36186;DHT22;22228;53.222;7.446;2023-12-22T20:23:28;3.90;99.90
36186;DHT22;22228;53.222;7.446;2023-12-22T20:26:48;4.00;99.90
36186;DHT22;22228;53.222;7.446;2023-12-22T20:30:09;4.00;99.90
36186;DHT22;22228;53.222;7.446;2023-12-22T20:33:32;4.10;99.90
36186;DHT22;22228;53.222;7.446;2023-12-22T20:36:52;4.20;99.90
36186;DHT22;22228;53.222;7.446;2023-12-22T20:40:12;4.40;99.90
36186;DHT22;22228;53.222;7.446;2023-12-22T20:43:33;4.50;99.90
36186;DHT22;22228;53.222;7.446;2023-12-22T20:46:53;4.60;99.90
36186;DHT22;22228;53.222;7.446;2023-12-22T20:50:15;4.60;99.90
36186;DHT22;22228;53.222;7.446;2023-12-22T20:53:37;4.60;99.90
36186;DHT22;22228;53.222;7.446;2023-12-22T20:56:57;4.70;99.90
36186;DHT22;22228;53.222;7.446;2023-12-22T21:00:18;4.70;99.90
36186;DHT22;22228;53.222;7.446;2023-12-22T21:03:38;4.70;99.90
36186;DHT22;22228;53.222;7.446;2023-12-22T21:07:00;4.80;99.90
36186;DHT22;22228;53.222;7.446;2023-12-22T21:10:22;4.90;99.90
36186;DHT22;22228;53.222;7.446;2023-12-22T21:13:43;5.00;99.90
36186;DHT22;22228;53.222;7.446;2023-12-22T21:17:03;5.10;99.90
36186;DHT22;22228;53.222;7.446;2023-12-22T21:20:24;4.90;99.90
36186;DHT22;22228;53.222;7.446;2023-12-22T21:23:46;4.30;99.90
36186;DHT22;22228;53.222;7.446;2023-12-22T21:27:06;4.10;99.90
36186;DHT22;22228;53.222;7.446;2023-12-22T21:30:27;4.00;99.90
36186;DHT22;22228;53.222;7.446;2023-12-22T21:33:48;4.10;99.90
36186;DHT22;22228;53.222;7.446;2023-12-22T21:37:08;4.10;99.90
36186;DHT22;22228;53.222;7.446;2023-12-22T21:40:30;4.30;99.90
36186;DHT22;22228;53.222;7.446;2023-12-22T21:43:51;4.30;99.90
36186;DHT22;22228;53.222;7.446;2023-12-22T21:47:12;4.40;99.90
36186;DHT22;22228;53.222;7.446;2023-12-22T21:50:32;4.40;99.90
36186;DHT22;22228;53.222;7.446;2023-12-22T21:53:53;4.40;99.90
36186;DHT22;22228;53.222;7.446;2023-12-22T21:57:14;4.40;99.90
36186;DHT22;22228;53.222;7.446;2023-12-22T22:00:35;4.40;99.90
36186;DHT22;22228;53.222;7.446;2023-12-22T22:03:56;4.30;99.90
36186;DHT22;22228;53.222;7.446;2023-12-22T22:07:17;4.20;99.90
36186;DHT22;22228;53.222;7.446;2023-12-22T22:10:37;4.20;99.90
36186;DHT22;22228;53.222;7.446;2023-12-22T22:13:59;4.20;99.90
36186;DHT22;22228;53.222;7.446;2023-12-22T22:17:21;4.20;99.90
36186;DHT22;22228;53.222;7.446;2023-12-22T22:20:42;4.20;99.90
36186;DHT22;22228;53.222;7.446;2023-12-22T22:24:03;4.30;99.90
36186;DHT22;22228;53.222;7.446;2023-12-22T22:27:23;4.30;99.90
36186;DHT22;22228;53.222;7.446;2023-12-22T22:30:45;4.30;99.90
36186;DHT22;22228;53.222;7.446;2023-12-22T22:34:06;4.30;99.90
36186;DHT22;22228;53.222;7.446;2023-12-22T22:37:27;4.40;99.90
36186;DHT22;22228;53.222;7.446;2023-12-22T22:40:47;4.60;99.90
36186;DHT22;22228;53.222;7.446;2023-12-22T22:44:08;4.60;99.90
36186;DHT22;22228;53.222;7.446;2023-12-22T22:47:31;4.70;99.90
36186;DHT22;22228;53.222;7.446;2023-12-22T22:50:52;4.70;99.90
36186;DHT22;22228;53.222;7.446;2023-12-22T22:54:12;4.70;99.90
36186;DHT22;22228;53.222;7.446;2023-12-22T22:57:33;4.80;99.90
36186;DHT22;22228;53.222;7.446;2023-12-22T23:00:53;4.70;99.90
36186;DHT22;22228;53.222;7.446;2023-12-22T23:04:15;4.70;99.90
36186;DHT22;22228;53.222;7.446;2023-12-22T23:07:35;4.70;99.90
36186;DHT22;22228;53.222;7.446;2023-12-22T23:10:56;4.70;99.90
36186;DHT22;22228;53.222;7.446;2023-12-22T23:14:17;4.80;99.90
36186;DHT22;22228;53.222;7.446;2023-12-22T23:17:37;4.80;99.90
36186;DHT22;22228;53.222;7.446;2023-12-22T23:20:59;4.90;99.90
36186;DHT22;22228;53.222;7.446;2023-12-22T23:24:20;4.80;99.90
36186;DHT22;22228;53.222;7.446;2023-12-22T23:27:40;4.80;99.90
36186;DHT22;22228;53.222;7.446;2023-12-22T23:31:01;4.80;99.90
36186;DHT22;22228;53.222;7.446;2023-12-22T23:34:22;4.80;99.90
36186;DHT22;22228;53.222;7.446;2023-12-22T23:37:44;4.80;99.90
36186;DHT22;22228;53.222;7.446;2023-12-22T23:41:04;4.70;99.90
36186;DHT22;22228;53.222;7.446;2023-12-22T23:44:25;4.70;99.90
36186;DHT22;22228;53.222;7.446;2023-12-22T23:47:45;4.70;99.90
36186;DHT22;22228;53.222;7.446;2023-12-22T23:51:06;4.70;99.90
36186;DHT22;22228;53.222;7.446;2023-12-22T23:54:27;4.80;99.90
36186;DHT22;22228;53.222;7.446;2023-12-22T23:57:48;4.70;99.90
